sensor_id;sensor_type;location;lat;lon;timestamp;P1;durP1;ratioP1;P2;durP2;ratioP2
35715;SDS011;21840;44.920;8.616;2023-06-26T00:02:14;11.10;;;6.18;;
35715;SDS011;21840;44.920;8.616;2023-06-26T00:04:41;10.13;;;5.32;;
35715;SDS011;21840;44.920;8.616;2023-06-26T00:07:07;14.90;;;6.20;;
35715;SDS011;21840;44.920;8.616;2023-06-26T00:09:33;9.77;;;5.97;;
35715;SDS011;21840;44.920;8.616;2023-06-26T00:11:59;12.35;;;5.78;;
35715;SDS011;21840;44.920;8.616;2023-06-26T00:14:25;9.38;;;5.97;;
35715;SDS011;21840;44.920;8.616;2023-06-26T00:16:51;8.02;;;5.68;;
35715;SDS011;21840;44.920;8.616;2023-06-26T00:19:17;9.20;;;5.63;;
35715;SDS011;21840;44.920;8.616;2023-06-26T00:21:43;12.98;;;5.15;;
35715;SDS011;21840;44.920;8.616;2023-06-26T00:24:16;11.60;;;5.75;;
35715;SDS011;21840;44.920;8.616;2023-06-26T00:26:48;9.15;;;5.35;;
35715;SDS011;21840;44.920;8.616;2023-06-26T00:29:13;11.27;;;5.53;;
35715;SDS011;21840;44.920;8.616;2023-06-26T00:31:39;8.50;;;5.82;;
35715;SDS011;21840;44.920;8.616;2023-06-26T00:34:05;12.02;;;6.18;;
35715;SDS011;21840;44.920;8.616;2023-06-26T00:36:31;7.63;;;5.28;;
35715;SDS011;21840;44.920;8.616;2023-06-26T00:38:56;14.02;;;5.43;;
35715;SDS011;21840;44.920;8.616;2023-06-26T00:41:22;12.88;;;5.20;;
35715;SDS011;21840;44.920;8.616;2023-06-26T00:43:48;9.70;;;5.28;;
35715;SDS011;21840;44.920;8.616;2023-06-26T00:46:14;9.13;;;4.88;;
35715;SDS011;21840;44.920;8.616;2023-06-26T00:48:41;9.32;;;5.13;;
35715;SDS011;21840;44.920;8.616;2023-06-26T00:51:07;12.13;;;5.20;;
35715;SDS011;21840;44.920;8.616;2023-06-26T00:53:33;9.32;;;4.70;;
35715;SDS011;21840;44.920;8.616;2023-06-26T00:55:59;11.85;;;5.30;;
35715;SDS011;21840;44.920;8.616;2023-06-26T00:58:28;9.25;;;5.15;;
35715;SDS011;21840;44.920;8.616;2023-06-26T01:00:56;8.93;;;5.18;;
35715;SDS011;21840;44.920;8.616;2023-06-26T01:03:22;12.80;;;5.88;;
35715;SDS011;21840;44.920;8.616;2023-06-26T01:05:49;9.80;;;5.82;;
35715;SDS011;21840;44.920;8.616;2023-06-26T01:08:17;10.68;;;6.20;;
35715;SDS011;21840;44.920;8.616;2023-06-26T01:10:44;14.00;;;5.97;;
35715;SDS011;21840;44.920;8.616;2023-06-26T01:13:11;7.85;;;5.80;;
35715;SDS011;21840;44.920;8.616;2023-06-26T01:15:38;9.45;;;5.70;;
35715;SDS011;21840;44.920;8.616;2023-06-26T01:18:05;13.35;;;6.22;;
35715;SDS011;21840;44.920;8.616;2023-06-26T01:20:34;10.85;;;6.00;;
35715;SDS011;21840;44.920;8.616;2023-06-26T01:28:33;12.13;;;6.03;;
35715;SDS011;21840;44.920;8.616;2023-06-26T01:31:01;9.80;;;5.90;;
35715;SDS011;21840;44.920;8.616;2023-06-26T01:33:29;10.07;;;5.38;;
35715;SDS011;21840;44.920;8.616;2023-06-26T01:35:58;12.68;;;6.07;;
35715;SDS011;21840;44.920;8.616;2023-06-26T01:38:24;8.20;;;5.75;;
35715;SDS011;21840;44.920;8.616;2023-06-26T01:40:51;10.65;;;5.68;;
35715;SDS011;21840;44.920;8.616;2023-06-26T01:46:24;11.73;;;6.53;;
35715;SDS011;21840;44.920;8.616;2023-06-26T01:49:02;12.23;;;6.80;;
35715;SDS011;21840;44.920;8.616;2023-06-26T01:51:35;10.75;;;6.40;;
35715;SDS011;21840;44.920;8.616;2023-06-26T01:54:07;11.82;;;6.85;;
35715;SDS011;21840;44.920;8.616;2023-06-26T01:56:40;10.27;;;7.25;;
35715;SDS011;21840;44.920;8.616;2023-06-26T01:59:09;12.57;;;6.72;;
35715;SDS011;21840;44.920;8.616;2023-06-26T02:01:36;16.00;;;6.80;;
35715;SDS011;21840;44.920;8.616;2023-06-26T02:04:02;10.07;;;5.78;;
35715;SDS011;21840;44.920;8.616;2023-06-26T02:06:29;11.60;;;6.78;;
35715;SDS011;21840;44.920;8.616;2023-06-26T02:08:55;11.57;;;6.30;;
35715;SDS011;21840;44.920;8.616;2023-06-26T02:11:22;11.27;;;5.63;;
35715;SDS011;21840;44.920;8.616;2023-06-26T02:13:51;6.30;;;5.00;;
35715;SDS011;21840;44.920;8.616;2023-06-26T02:16:16;10.18;;;4.97;;
35715;SDS011;21840;44.920;8.616;2023-06-26T02:18:42;8.60;;;5.28;;
35715;SDS011;21840;44.920;8.616;2023-06-26T02:21:08;6.13;;;4.60;;
35715;SDS011;21840;44.920;8.616;2023-06-26T02:23:34;7.25;;;4.68;;
35715;SDS011;21840;44.920;8.616;2023-06-26T02:26:00;10.48;;;4.68;;
35715;SDS011;21840;44.920;8.616;2023-06-26T02:28:25;7.78;;;4.05;;
35715;SDS011;21840;44.920;8.616;2023-06-26T02:30:51;7.97;;;4.30;;
35715;SDS011;21840;44.920;8.616;2023-06-26T02:33:19;6.72;;;4.30;;
35715;SDS011;21840;44.920;8.616;2023-06-26T02:35:47;13.02;;;5.07;;
35715;SDS011;21840;44.920;8.616;2023-06-26T02:38:15;13.57;;;4.32;;
35715;SDS011;21840;44.920;8.616;2023-06-26T02:40:40;9.15;;;4.85;;
35715;SDS011;21840;44.920;8.616;2023-06-26T02:43:06;14.85;;;4.82;;
35715;SDS011;21840;44.920;8.616;2023-06-26T02:45:32;6.65;;;4.80;;
35715;SDS011;21840;44.920;8.616;2023-06-26T02:47:57;9.43;;;4.63;;
35715;SDS011;21840;44.920;8.616;2023-06-26T02:50:23;14.05;;;4.80;;
35715;SDS011;21840;44.920;8.616;2023-06-26T02:53:15;8.88;;;4.53;;
35715;SDS011;21840;44.920;8.616;2023-06-26T02:55:43;7.30;;;4.60;;
35715;SDS011;21840;44.920;8.616;2023-06-26T02:58:09;8.05;;;5.07;;
35715;SDS011;21840;44.920;8.616;2023-06-26T03:00:36;12.65;;;4.85;;
35715;SDS011;21840;44.920;8.616;2023-06-26T03:03:07;11.02;;;4.60;;
35715;SDS011;21840;44.920;8.616;2023-06-26T03:05:33;8.02;;;4.38;;
35715;SDS011;21840;44.920;8.616;2023-06-26T03:07:59;8.65;;;4.43;;
35715;SDS011;21840;44.920;8.616;2023-06-26T03:10:25;11.52;;;4.50;;
35715;SDS011;21840;44.920;8.616;2023-06-26T03:12:50;10.23;;;4.68;;
35715;SDS011;21840;44.920;8.616;2023-06-26T03:15:18;6.68;;;4.38;;
35715;SDS011;21840;44.920;8.616;2023-06-26T03:17:44;9.75;;;4.93;;
35715;SDS011;21840;44.920;8.616;2023-06-26T03:20:14;14.45;;;5.10;;
35715;SDS011;21840;44.920;8.616;2023-06-26T03:22:58;9.88;;;4.78;;
35715;SDS011;21840;44.920;8.616;2023-06-26T03:25:24;7.32;;;4.95;;
35715;SDS011;21840;44.920;8.616;2023-06-26T03:27:58;7.80;;;4.90;;
35715;SDS011;21840;44.920;8.616;2023-06-26T03:30:25;8.02;;;4.22;;
35715;SDS011;21840;44.920;8.616;2023-06-26T03:32:56;7.67;;;4.87;;
35715;SDS011;21840;44.920;8.616;2023-06-26T03:35:21;7.00;;;4.22;;
35715;SDS011;21840;44.920;8.616;2023-06-26T03:37:48;11.55;;;5.20;;
35715;SDS011;21840;44.920;8.616;2023-06-26T03:40:15;7.28;;;4.60;;
35715;SDS011;21840;44.920;8.616;2023-06-26T03:42:41;5.78;;;4.72;;
35715;SDS011;21840;44.920;8.616;2023-06-26T03:45:07;7.32;;;4.95;;
35715;SDS011;21840;44.920;8.616;2023-06-26T03:47:34;8.80;;;4.97;;
35715;SDS011;21840;44.920;8.616;2023-06-26T03:50:01;12.40;;;5.30;;
35715;SDS011;21840;44.920;8.616;2023-06-26T03:52:27;8.55;;;5.22;;
35715;SDS011;21840;44.920;8.616;2023-06-26T03:54:56;7.30;;;4.45;;
35715;SDS011;21840;44.920;8.616;2023-06-26T03:57:22;13.80;;;5.68;;
35715;SDS011;21840;44.920;8.616;2023-06-26T03:59:48;8.05;;;5.10;;
35715;SDS011;21840;44.920;8.616;2023-06-26T04:02:14;7.63;;;5.00;;
35715;SDS011;21840;44.920;8.616;2023-06-26T04:04:42;14.05;;;5.18;;
35715;SDS011;21840;44.920;8.616;2023-06-26T04:07:07;10.50;;;5.80;;
35715;SDS011;21840;44.920;8.616;2023-06-26T04:09:33;11.30;;;5.45;;
35715;SDS011;21840;44.920;8.616;2023-06-26T04:11:59;7.90;;;5.45;;
35715;SDS011;21840;44.920;8.616;2023-06-26T04:14:24;12.52;;;5.70;;
35715;SDS011;21840;44.920;8.616;2023-06-26T04:16:50;8.73;;;4.55;;
35715;SDS011;21840;44.920;8.616;2023-06-26T04:19:15;8.25;;;4.68;;
35715;SDS011;21840;44.920;8.616;2023-06-26T04:21:41;9.38;;;5.25;;
35715;SDS011;21840;44.920;8.616;2023-06-26T04:24:07;8.77;;;4.93;;
35715;SDS011;21840;44.920;8.616;2023-06-26T04:26:32;7.13;;;4.68;;
35715;SDS011;21840;44.920;8.616;2023-06-26T04:28:58;8.63;;;5.40;;
35715;SDS011;21840;44.920;8.616;2023-06-26T04:31:24;8.18;;;5.22;;
35715;SDS011;21840;44.920;8.616;2023-06-26T04:33:50;10.63;;;5.88;;
35715;SDS011;21840;44.920;8.616;2023-06-26T04:36:16;11.30;;;6.10;;
35715;SDS011;21840;44.920;8.616;2023-06-26T04:38:43;10.10;;;6.07;;
35715;SDS011;21840;44.920;8.616;2023-06-26T04:41:08;7.60;;;5.75;;
35715;SDS011;21840;44.920;8.616;2023-06-26T04:43:34;17.88;;;6.57;;
35715;SDS011;21840;44.920;8.616;2023-06-26T04:46:00;8.70;;;6.68;;
35715;SDS011;21840;44.920;8.616;2023-06-26T04:48:27;8.77;;;6.75;;
35715;SDS011;21840;44.920;8.616;2023-06-26T04:50:53;12.95;;;7.70;;
35715;SDS011;21840;44.920;8.616;2023-06-26T04:53:20;11.63;;;7.18;;
35715;SDS011;21840;44.920;8.616;2023-06-26T04:55:46;9.98;;;7.07;;
35715;SDS011;21840;44.920;8.616;2023-06-26T04:58:12;12.95;;;6.85;;
35715;SDS011;21840;44.920;8.616;2023-06-26T05:00:37;7.75;;;5.97;;
35715;SDS011;21840;44.920;8.616;2023-06-26T05:03:03;12.82;;;6.80;;
35715;SDS011;21840;44.920;8.616;2023-06-26T05:05:29;8.98;;;5.88;;
35715;SDS011;21840;44.920;8.616;2023-06-26T05:07:55;10.63;;;6.30;;
35715;SDS011;21840;44.920;8.616;2023-06-26T05:10:21;10.48;;;6.63;;
35715;SDS011;21840;44.920;8.616;2023-06-26T05:12:47;12.35;;;7.18;;
35715;SDS011;21840;44.920;8.616;2023-06-26T05:15:12;15.25;;;6.15;;
35715;SDS011;21840;44.920;8.616;2023-06-26T05:17:38;13.70;;;6.53;;
35715;SDS011;21840;44.920;8.616;2023-06-26T05:20:04;15.38;;;6.45;;
35715;SDS011;21840;44.920;8.616;2023-06-26T05:22:31;11.73;;;6.57;;
35715;SDS011;21840;44.920;8.616;2023-06-26T05:24:58;14.73;;;6.03;;
35715;SDS011;21840;44.920;8.616;2023-06-26T05:27:25;12.07;;;5.93;;
35715;SDS011;21840;44.920;8.616;2023-06-26T05:29:51;10.18;;;6.10;;
35715;SDS011;21840;44.920;8.616;2023-06-26T05:32:17;10.85;;;7.03;;
35715;SDS011;21840;44.920;8.616;2023-06-26T05:34:47;9.73;;;6.18;;
35715;SDS011;21840;44.920;8.616;2023-06-26T05:37:18;8.77;;;5.93;;
35715;SDS011;21840;44.920;8.616;2023-06-26T05:39:46;13.38;;;6.40;;
35715;SDS011;21840;44.920;8.616;2023-06-26T05:42:12;13.38;;;7.05;;
35715;SDS011;21840;44.920;8.616;2023-06-26T05:44:38;10.98;;;7.35;;
35715;SDS011;21840;44.920;8.616;2023-06-26T05:47:03;12.63;;;8.07;;
35715;SDS011;21840;44.920;8.616;2023-06-26T05:49:29;12.65;;;8.40;;
35715;SDS011;21840;44.920;8.616;2023-06-26T05:51:54;15.40;;;9.00;;
35715;SDS011;21840;44.920;8.616;2023-06-26T05:54:20;13.98;;;8.15;;
35715;SDS011;21840;44.920;8.616;2023-06-26T05:56:47;13.23;;;8.43;;
35715;SDS011;21840;44.920;8.616;2023-06-26T05:59:13;10.45;;;7.75;;
35715;SDS011;21840;44.920;8.616;2023-06-26T06:01:40;21.13;;;8.07;;
35715;SDS011;21840;44.920;8.616;2023-06-26T06:04:06;12.77;;;8.18;;
35715;SDS011;21840;44.920;8.616;2023-06-26T06:06:32;17.58;;;8.85;;
35715;SDS011;21840;44.920;8.616;2023-06-26T06:08:58;16.92;;;8.52;;
35715;SDS011;21840;44.920;8.616;2023-06-26T06:11:23;15.68;;;9.20;;
35715;SDS011;21840;44.920;8.616;2023-06-26T06:13:49;11.75;;;9.23;;
35715;SDS011;21840;44.920;8.616;2023-06-26T06:16:14;11.30;;;8.88;;
35715;SDS011;21840;44.920;8.616;2023-06-26T06:18:40;11.60;;;8.27;;
35715;SDS011;21840;44.920;8.616;2023-06-26T06:21:05;14.25;;;8.65;;
35715;SDS011;21840;44.920;8.616;2023-06-26T06:23:31;12.32;;;8.82;;
35715;SDS011;21840;44.920;8.616;2023-06-26T06:25:56;10.20;;;8.35;;
35715;SDS011;21840;44.920;8.616;2023-06-26T06:28:22;11.98;;;9.00;;
35715;SDS011;21840;44.920;8.616;2023-06-26T06:30:47;15.02;;;9.57;;
35715;SDS011;21840;44.920;8.616;2023-06-26T06:33:13;13.90;;;9.18;;
35715;SDS011;21840;44.920;8.616;2023-06-26T06:35:39;11.93;;;9.10;;
35715;SDS011;21840;44.920;8.616;2023-06-26T06:38:05;10.05;;;8.45;;
35715;SDS011;21840;44.920;8.616;2023-06-26T06:40:30;11.73;;;8.95;;
35715;SDS011;21840;44.920;8.616;2023-06-26T06:42:56;12.70;;;9.93;;
35715;SDS011;21840;44.920;8.616;2023-06-26T06:45:21;16.85;;;9.50;;
35715;SDS011;21840;44.920;8.616;2023-06-26T06:47:47;14.77;;;8.45;;
35715;SDS011;21840;44.920;8.616;2023-06-26T06:50:12;13.52;;;8.07;;
35715;SDS011;21840;44.920;8.616;2023-06-26T06:52:42;13.80;;;7.57;;
35715;SDS011;21840;44.920;8.616;2023-06-26T06:55:10;11.90;;;7.55;;
35715;SDS011;21840;44.920;8.616;2023-06-26T06:57:36;11.82;;;7.20;;
35715;SDS011;21840;44.920;8.616;2023-06-26T07:00:12;10.02;;;6.80;;
35715;SDS011;21840;44.920;8.616;2023-06-26T07:02:44;11.25;;;7.13;;
35715;SDS011;21840;44.920;8.616;2023-06-26T07:05:10;11.18;;;6.78;;
35715;SDS011;21840;44.920;8.616;2023-06-26T07:07:37;11.43;;;6.00;;
35715;SDS011;21840;44.920;8.616;2023-06-26T07:10:05;9.70;;;6.70;;
35715;SDS011;21840;44.920;8.616;2023-06-26T07:12:33;11.98;;;7.05;;
35715;SDS011;21840;44.920;8.616;2023-06-26T07:14:59;12.40;;;7.13;;
35715;SDS011;21840;44.920;8.616;2023-06-26T07:17:30;12.98;;;7.68;;
35715;SDS011;21840;44.920;8.616;2023-06-26T07:19:56;16.70;;;8.45;;
35715;SDS011;21840;44.920;8.616;2023-06-26T07:22:21;18.20;;;8.70;;
35715;SDS011;21840;44.920;8.616;2023-06-26T07:24:48;14.15;;;6.57;;
35715;SDS011;21840;44.920;8.616;2023-06-26T07:27:14;15.50;;;8.25;;
35715;SDS011;21840;44.920;8.616;2023-06-26T07:29:44;21.23;;;8.63;;
35715;SDS011;21840;44.920;8.616;2023-06-26T07:32:10;13.68;;;8.10;;
35715;SDS011;21840;44.920;8.616;2023-06-26T07:34:35;14.93;;;7.72;;
35715;SDS011;21840;44.920;8.616;2023-06-26T07:37:01;14.48;;;8.63;;
35715;SDS011;21840;44.920;8.616;2023-06-26T07:39:29;16.25;;;8.70;;
35715;SDS011;21840;44.920;8.616;2023-06-26T07:41:55;19.52;;;8.10;;
35715;SDS011;21840;44.920;8.616;2023-06-26T07:44:24;11.75;;;8.82;;
35715;SDS011;21840;44.920;8.616;2023-06-26T07:46:49;11.95;;;7.95;;
35715;SDS011;21840;44.920;8.616;2023-06-26T07:49:15;20.77;;;7.90;;
35715;SDS011;21840;44.920;8.616;2023-06-26T07:51:44;17.58;;;8.48;;
35715;SDS011;21840;44.920;8.616;2023-06-26T07:54:09;18.92;;;8.50;;
35715;SDS011;21840;44.920;8.616;2023-06-26T07:56:35;13.88;;;8.15;;
35715;SDS011;21840;44.920;8.616;2023-06-26T07:59:18;16.00;;;8.18;;
35715;SDS011;21840;44.920;8.616;2023-06-26T08:01:44;18.77;;;9.43;;
35715;SDS011;21840;44.920;8.616;2023-06-26T08:04:09;14.68;;;8.65;;
35715;SDS011;21840;44.920;8.616;2023-06-26T08:06:36;11.02;;;8.48;;
35715;SDS011;21840;44.920;8.616;2023-06-26T08:09:05;16.35;;;7.47;;
35715;SDS011;21840;44.920;8.616;2023-06-26T08:11:32;18.60;;;8.63;;
35715;SDS011;21840;44.920;8.616;2023-06-26T08:14:01;15.40;;;7.72;;
35715;SDS011;21840;44.920;8.616;2023-06-26T08:16:26;11.38;;;8.25;;
35715;SDS011;21840;44.920;8.616;2023-06-26T08:18:52;16.08;;;7.72;;
35715;SDS011;21840;44.920;8.616;2023-06-26T08:21:17;13.27;;;8.07;;
35715;SDS011;21840;44.920;8.616;2023-06-26T08:23:43;12.80;;;8.45;;
35715;SDS011;21840;44.920;8.616;2023-06-26T08:26:08;16.95;;;9.68;;
35715;SDS011;21840;44.920;8.616;2023-06-26T08:28:36;12.88;;;8.63;;
35715;SDS011;21840;44.920;8.616;2023-06-26T08:31:02;24.38;;;7.90;;
35715;SDS011;21840;44.920;8.616;2023-06-26T08:33:27;26.73;;;10.05;;
35715;SDS011;21840;44.920;8.616;2023-06-26T08:35:53;13.50;;;9.02;;
35715;SDS011;21840;44.920;8.616;2023-06-26T08:38:19;16.35;;;10.30;;
35715;SDS011;21840;44.920;8.616;2023-06-26T08:40:46;19.15;;;8.43;;
35715;SDS011;21840;44.920;8.616;2023-06-26T08:43:12;14.68;;;8.73;;
35715;SDS011;21840;44.920;8.616;2023-06-26T08:45:37;19.00;;;7.40;;
35715;SDS011;21840;44.920;8.616;2023-06-26T08:48:03;13.43;;;7.40;;
35715;SDS011;21840;44.920;8.616;2023-06-26T08:50:35;13.88;;;7.90;;
35715;SDS011;21840;44.920;8.616;2023-06-26T08:55:43;15.10;;;7.65;;
35715;SDS011;21840;44.920;8.616;2023-06-26T08:58:10;8.45;;;6.10;;
35715;SDS011;21840;44.920;8.616;2023-06-26T09:00:38;8.15;;;5.43;;
35715;SDS011;21840;44.920;8.616;2023-06-26T09:03:04;11.82;;;5.90;;
35715;SDS011;21840;44.920;8.616;2023-06-26T09:05:30;13.30;;;6.32;;
35715;SDS011;21840;44.920;8.616;2023-06-26T09:07:58;11.07;;;4.95;;
35715;SDS011;21840;44.920;8.616;2023-06-26T09:10:24;8.18;;;5.25;;
35715;SDS011;21840;44.920;8.616;2023-06-26T09:12:49;9.15;;;4.80;;
35715;SDS011;21840;44.920;8.616;2023-06-26T09:15:15;9.63;;;5.30;;
35715;SDS011;21840;44.920;8.616;2023-06-26T09:17:44;12.40;;;5.05;;
35715;SDS011;21840;44.920;8.616;2023-06-26T09:20:09;7.07;;;5.10;;
35715;SDS011;21840;44.920;8.616;2023-06-26T09:22:40;9.80;;;5.18;;
35715;SDS011;21840;44.920;8.616;2023-06-26T09:25:07;12.88;;;5.40;;
35715;SDS011;21840;44.920;8.616;2023-06-26T09:27:34;9.82;;;5.25;;
35715;SDS011;21840;44.920;8.616;2023-06-26T09:30:01;13.43;;;4.93;;
35715;SDS011;21840;44.920;8.616;2023-06-26T09:32:33;13.45;;;4.05;;
35715;SDS011;21840;44.920;8.616;2023-06-26T09:35:02;10.00;;;4.75;;
35715;SDS011;21840;44.920;8.616;2023-06-26T09:37:29;9.43;;;4.68;;
35715;SDS011;21840;44.920;8.616;2023-06-26T09:39:55;12.90;;;4.85;;
35715;SDS011;21840;44.920;8.616;2023-06-26T09:42:20;9.88;;;4.70;;
35715;SDS011;21840;44.920;8.616;2023-06-26T09:44:47;10.45;;;4.13;;
35715;SDS011;21840;44.920;8.616;2023-06-26T09:47:18;10.90;;;4.93;;
35715;SDS011;21840;44.920;8.616;2023-06-26T09:49:44;7.93;;;4.82;;
35715;SDS011;21840;44.920;8.616;2023-06-26T09:52:10;9.57;;;4.80;;
35715;SDS011;21840;44.920;8.616;2023-06-26T09:54:42;13.40;;;5.90;;
35715;SDS011;21840;44.920;8.616;2023-06-26T09:57:18;16.13;;;5.15;;
35715;SDS011;21840;44.920;8.616;2023-06-26T09:59:44;6.88;;;4.90;;
35715;SDS011;21840;44.920;8.616;2023-06-26T10:02:13;10.95;;;4.80;;
35715;SDS011;21840;44.920;8.616;2023-06-26T10:04:38;12.93;;;5.05;;
35715;SDS011;21840;44.920;8.616;2023-06-26T10:07:05;7.00;;;4.22;;
35715;SDS011;21840;44.920;8.616;2023-06-26T10:09:33;11.68;;;4.20;;
35715;SDS011;21840;44.920;8.616;2023-06-26T10:12:21;6.95;;;4.43;;
35715;SDS011;21840;44.920;8.616;2023-06-26T10:14:53;8.50;;;4.65;;
35715;SDS011;21840;44.920;8.616;2023-06-26T10:17:20;7.22;;;4.68;;
35715;SDS011;21840;44.920;8.616;2023-06-26T10:19:47;6.13;;;4.85;;
35715;SDS011;21840;44.920;8.616;2023-06-26T10:22:17;7.35;;;4.82;;
35715;SDS011;21840;44.920;8.616;2023-06-26T10:24:45;16.88;;;4.63;;
35715;SDS011;21840;44.920;8.616;2023-06-26T10:29:49;9.55;;;5.40;;
35715;SDS011;21840;44.920;8.616;2023-06-26T10:32:18;11.50;;;5.57;;
35715;SDS011;21840;44.920;8.616;2023-06-26T10:34:45;15.10;;;6.15;;
35715;SDS011;21840;44.920;8.616;2023-06-26T10:37:11;9.95;;;4.90;;
35715;SDS011;21840;44.920;8.616;2023-06-26T10:42:13;10.65;;;5.43;;
35715;SDS011;21840;44.920;8.616;2023-06-26T10:44:40;10.00;;;5.28;;
35715;SDS011;21840;44.920;8.616;2023-06-26T10:47:11;8.95;;;5.57;;
35715;SDS011;21840;44.920;8.616;2023-06-26T10:49:37;9.30;;;5.65;;
35715;SDS011;21840;44.920;8.616;2023-06-26T10:52:07;8.48;;;5.70;;
35715;SDS011;21840;44.920;8.616;2023-06-26T10:54:33;10.00;;;5.93;;
35715;SDS011;21840;44.920;8.616;2023-06-26T10:56:59;12.45;;;5.70;;
35715;SDS011;21840;44.920;8.616;2023-06-26T10:59:28;11.85;;;5.50;;
35715;SDS011;21840;44.920;8.616;2023-06-26T11:01:56;11.50;;;5.45;;
35715;SDS011;21840;44.920;8.616;2023-06-26T11:04:36;8.68;;;5.60;;
35715;SDS011;21840;44.920;8.616;2023-06-26T11:09:53;17.50;;;6.32;;
35715;SDS011;21840;44.920;8.616;2023-06-26T11:12:40;8.38;;;5.45;;
35715;SDS011;21840;44.920;8.616;2023-06-26T11:15:07;20.63;;;6.47;;
35715;SDS011;21840;44.920;8.616;2023-06-26T11:17:38;10.45;;;5.80;;
35715;SDS011;21840;44.920;8.616;2023-06-26T11:20:05;6.80;;;5.03;;
35715;SDS011;21840;44.920;8.616;2023-06-26T11:22:34;7.75;;;5.35;;
35715;SDS011;21840;44.920;8.616;2023-06-26T11:25:02;9.73;;;4.93;;
35715;SDS011;21840;44.920;8.616;2023-06-26T11:27:46;7.53;;;5.43;;
35715;SDS011;21840;44.920;8.616;2023-06-26T11:30:22;9.18;;;5.25;;
35715;SDS011;21840;44.920;8.616;2023-06-26T11:32:49;7.07;;;4.80;;
35715;SDS011;21840;44.920;8.616;2023-06-26T11:35:24;14.57;;;5.43;;
35715;SDS011;21840;44.920;8.616;2023-06-26T11:37:59;11.48;;;5.10;;
35715;SDS011;21840;44.920;8.616;2023-06-26T11:40:30;6.93;;;4.97;;
35715;SDS011;21840;44.920;8.616;2023-06-26T11:43:03;15.85;;;5.65;;
35715;SDS011;21840;44.920;8.616;2023-06-26T11:45:29;11.13;;;5.82;;
35715;SDS011;21840;44.920;8.616;2023-06-26T11:47:56;9.18;;;5.15;;
35715;SDS011;21840;44.920;8.616;2023-06-26T11:50:22;8.43;;;5.05;;
35715;SDS011;21840;44.920;8.616;2023-06-26T11:52:57;8.57;;;4.50;;
35715;SDS011;21840;44.920;8.616;2023-06-26T11:55:24;12.13;;;4.75;;
35715;SDS011;21840;44.920;8.616;2023-06-26T11:57:54;6.35;;;4.40;;
35715;SDS011;21840;44.920;8.616;2023-06-26T12:00:20;10.68;;;5.07;;
35715;SDS011;21840;44.920;8.616;2023-06-26T12:02:46;7.70;;;4.55;;
35715;SDS011;21840;44.920;8.616;2023-06-26T12:05:13;6.72;;;4.60;;
35715;SDS011;21840;44.920;8.616;2023-06-26T12:07:44;13.07;;;5.07;;
35715;SDS011;21840;44.920;8.616;2023-06-26T12:10:12;26.02;;;8.98;;
35715;SDS011;21840;44.920;8.616;2023-06-26T12:12:39;49.97;;;13.95;;
35715;SDS011;21840;44.920;8.616;2023-06-26T12:15:06;14.23;;;7.03;;
35715;SDS011;21840;44.920;8.616;2023-06-26T12:17:33;15.40;;;5.82;;
35715;SDS011;21840;44.920;8.616;2023-06-26T12:20:03;11.20;;;5.60;;
35715;SDS011;21840;44.920;8.616;2023-06-26T12:22:34;13.27;;;5.32;;
35715;SDS011;21840;44.920;8.616;2023-06-26T12:25:00;10.27;;;5.47;;
35715;SDS011;21840;44.920;8.616;2023-06-26T12:27:26;8.98;;;5.00;;
35715;SDS011;21840;44.920;8.616;2023-06-26T12:29:53;9.38;;;5.43;;
35715;SDS011;21840;44.920;8.616;2023-06-26T12:32:21;11.05;;;4.35;;
35715;SDS011;21840;44.920;8.616;2023-06-26T12:34:49;13.00;;;4.60;;
35715;SDS011;21840;44.920;8.616;2023-06-26T12:37:18;7.28;;;4.50;;
35715;SDS011;21840;44.920;8.616;2023-06-26T12:39:47;7.85;;;5.38;;
35715;SDS011;21840;44.920;8.616;2023-06-26T12:42:18;10.48;;;4.65;;
35715;SDS011;21840;44.920;8.616;2023-06-26T12:44:45;12.60;;;4.95;;
35715;SDS011;21840;44.920;8.616;2023-06-26T12:47:14;5.03;;;4.25;;
35715;SDS011;21840;44.920;8.616;2023-06-26T12:49:41;12.32;;;5.18;;
35715;SDS011;21840;44.920;8.616;2023-06-26T12:52:12;12.68;;;4.97;;
35715;SDS011;21840;44.920;8.616;2023-06-26T12:54:39;8.30;;;4.72;;
35715;SDS011;21840;44.920;8.616;2023-06-26T12:57:06;8.35;;;4.22;;
35715;SDS011;21840;44.920;8.616;2023-06-26T12:59:32;9.65;;;4.35;;
35715;SDS011;21840;44.920;8.616;2023-06-26T13:01:59;10.35;;;4.35;;
35715;SDS011;21840;44.920;8.616;2023-06-26T13:04:28;7.65;;;4.25;;
35715;SDS011;21840;44.920;8.616;2023-06-26T13:06:55;7.85;;;5.15;;
35715;SDS011;21840;44.920;8.616;2023-06-26T13:09:21;8.57;;;4.78;;
35715;SDS011;21840;44.920;8.616;2023-06-26T13:11:47;7.35;;;5.10;;
35715;SDS011;21840;44.920;8.616;2023-06-26T13:14:13;9.80;;;4.53;;
35715;SDS011;21840;44.920;8.616;2023-06-26T13:16:39;13.02;;;4.63;;
35715;SDS011;21840;44.920;8.616;2023-06-26T13:19:05;8.43;;;4.05;;
35715;SDS011;21840;44.920;8.616;2023-06-26T13:21:30;7.65;;;4.80;;
35715;SDS011;21840;44.920;8.616;2023-06-26T13:23:56;9.43;;;5.10;;
35715;SDS011;21840;44.920;8.616;2023-06-26T13:26:22;6.70;;;4.22;;
35715;SDS011;21840;44.920;8.616;2023-06-26T13:28:48;8.73;;;4.43;;
35715;SDS011;21840;44.920;8.616;2023-06-26T13:31:14;7.50;;;4.80;;
35715;SDS011;21840;44.920;8.616;2023-06-26T13:33:40;9.70;;;4.75;;
35715;SDS011;21840;44.920;8.616;2023-06-26T13:36:06;12.30;;;3.70;;
35715;SDS011;21840;44.920;8.616;2023-06-26T13:38:35;6.15;;;4.03;;
35715;SDS011;21840;44.920;8.616;2023-06-26T13:41:00;6.60;;;4.35;;
35715;SDS011;21840;44.920;8.616;2023-06-26T13:43:27;8.18;;;3.95;;
35715;SDS011;21840;44.920;8.616;2023-06-26T13:45:53;7.07;;;3.95;;
35715;SDS011;21840;44.920;8.616;2023-06-26T13:48:19;5.80;;;4.53;;
35715;SDS011;21840;44.920;8.616;2023-06-26T13:50:45;5.05;;;3.45;;
35715;SDS011;21840;44.920;8.616;2023-06-26T13:53:11;5.15;;;3.72;;
35715;SDS011;21840;44.920;8.616;2023-06-26T13:55:40;11.35;;;4.65;;
35715;SDS011;21840;44.920;8.616;2023-06-26T13:58:06;5.57;;;4.18;;
35715;SDS011;21840;44.920;8.616;2023-06-26T14:00:33;7.55;;;3.95;;
35715;SDS011;21840;44.920;8.616;2023-06-26T14:03:00;4.30;;;3.78;;
35715;SDS011;21840;44.920;8.616;2023-06-26T14:05:26;7.03;;;4.47;;
35715;SDS011;21840;44.920;8.616;2023-06-26T14:07:54;8.88;;;3.97;;
35715;SDS011;21840;44.920;8.616;2023-06-26T14:10:20;8.48;;;4.25;;
35715;SDS011;21840;44.920;8.616;2023-06-26T14:12:47;6.70;;;3.80;;
35715;SDS011;21840;44.920;8.616;2023-06-26T14:15:12;8.25;;;3.85;;
35715;SDS011;21840;44.920;8.616;2023-06-26T14:17:38;8.55;;;3.65;;
35715;SDS011;21840;44.920;8.616;2023-06-26T14:20:05;11.65;;;3.65;;
35715;SDS011;21840;44.920;8.616;2023-06-26T14:22:37;8.55;;;3.72;;
35715;SDS011;21840;44.920;8.616;2023-06-26T14:25:07;6.97;;;3.67;;
35715;SDS011;21840;44.920;8.616;2023-06-26T14:27:33;5.55;;;3.88;;
35715;SDS011;21840;44.920;8.616;2023-06-26T14:29:59;5.65;;;3.20;;
35715;SDS011;21840;44.920;8.616;2023-06-26T14:32:24;6.60;;;3.78;;
35715;SDS011;21840;44.920;8.616;2023-06-26T14:34:50;10.05;;;3.67;;
35715;SDS011;21840;44.920;8.616;2023-06-26T14:37:15;5.82;;;3.78;;
35715;SDS011;21840;44.920;8.616;2023-06-26T14:39:44;6.05;;;3.70;;
35715;SDS011;21840;44.920;8.616;2023-06-26T14:42:10;5.72;;;3.83;;
35715;SDS011;21840;44.920;8.616;2023-06-26T14:44:38;5.85;;;3.55;;
35715;SDS011;21840;44.920;8.616;2023-06-26T14:47:04;5.45;;;3.63;;
35715;SDS011;21840;44.920;8.616;2023-06-26T14:49:30;8.90;;;3.45;;
35715;SDS011;21840;44.920;8.616;2023-06-26T14:51:56;9.00;;;4.88;;
35715;SDS011;21840;44.920;8.616;2023-06-26T14:54:22;16.08;;;8.50;;
35715;SDS011;21840;44.920;8.616;2023-06-26T14:56:47;8.30;;;4.30;;
35715;SDS011;21840;44.920;8.616;2023-06-26T14:59:13;8.52;;;4.60;;
35715;SDS011;21840;44.920;8.616;2023-06-26T15:01:39;9.45;;;3.97;;